No 32takemaru — JG5746 — position and weather

sailwx.info

Track history (hours):
 
Tides and Currents Weather Stations Pressure Air Temp Water Temp Dewpoint Dewpoint Depression Visibility Wind Speed Wind Dir Waves Ship Positions

No 32takemaru

Last reported at 2017-Oct-16 05:33 UTC. Time now 2017-Oct-17 11:44 UTC.
Position N 34°39' E 135°28'.

Length 38 m; draft 2.8 m.

Type: Tug. MMSI: 431000341.

Date/timePositionNaut miles runAvg speedWind from/ knotsBaromVisibWave heightAir tempDewpointWater temp
2017-Oct-16 05:33N 34°39' E 135°28'0 7.5
2017-Oct-16 05:30N 34°39' E 135°27'3 5.6
2017-Oct-16 05:00N 34°39' E 135°24'1 1.8
2017-Oct-16 04:31N 34°38' E 135°24'0 0.7
2017-Oct-16 04:00N 34°38' E 135°24'3 0.6
2017-Oct-15 22:17N 34°39' E 135°28'0 0.0
2017-Oct-15 21:57N 34°39' E 135°28'0 0.0
2017-Oct-14 21:55N 34°39' E 135°28'0 0.0
2017-Oct-13 20:33N 34°39' E 135°28'0 0.0
2017-Oct-13 20:28N 34°39' E 135°28'0 0.0
2017-Oct-13 17:52N 34°39' E 135°28'0 0.0
2017-Oct-13 17:03N 34°39' E 135°28'0 0.0
2017-Oct-13 16:59N 34°39' E 135°28'0 0.0
2017-Oct-13 16:29N 34°39' E 135°28'0 0.0
2017-Oct-13 16:00N 34°39' E 135°28'0 0.0
2017-Oct-13 15:24N 34°39' E 135°28'0 0.0
2017-Oct-13 14:59N 34°39' E 135°28'0 0.0
2017-Oct-13 14:16N 34°39' E 135°28'0 0.0
2017-Oct-13 13:12N 34°39' E 135°28'0 0.0
2017-Oct-13 12:47N 34°39' E 135°28'  
2017-Oct-08 16:05N 34°39' E 135°28'0 0.0
2017-Oct-08 15:40N 34°39' E 135°28'0 0.0
2017-Oct-08 15:26N 34°39' E 135°28'0 0.0
2017-Oct-08 12:41N 34°39' E 135°28'0 0.0
2017-Oct-08 10:27N 34°39' E 135°28'0 0.0
2017-Oct-07 21:43N 34°39' E 135°28'0 0.0
2017-Oct-07 21:18N 34°39' E 135°28'0 0.0
2017-Oct-07 19:49N 34°39' E 135°28'0 0.0
2017-Oct-07 15:02N 34°39' E 135°28'0 0.0
2017-Oct-07 15:00N 34°39' E 135°28'0 0.0
2017-Oct-07 14:25N 34°39' E 135°28'0 0.0
2017-Oct-07 13:30N 34°39' E 135°28'0 0.0
2017-Oct-07 12:52N 34°39' E 135°28'0 0.0
2017-Oct-07 11:12N 34°39' E 135°28'0 0.0
2017-Oct-06 22:44N 34°39' E 135°28'0 0.0
2017-Oct-06 22:21N 34°39' E 135°28'0 0.0
2017-Oct-06 21:53N 34°39' E 135°28'0 0.0
2017-Oct-06 20:42N 34°39' E 135°28'0 0.0
2017-Oct-06 18:54N 34°39' E 135°28'0 0.0
2017-Oct-06 18:30N 34°39' E 135°28'0 0.0
2017-Oct-06 18:00N 34°39' E 135°28'0 0.0
2017-Oct-06 17:30N 34°39' E 135°28'0 0.0
2017-Oct-06 16:56N 34°39' E 135°28'0 0.0
2017-Oct-06 16:30N 34°39' E 135°28'0 0.0
2017-Oct-06 15:54N 34°39' E 135°28'0 0.0
2017-Oct-06 15:29N 34°39' E 135°28'0 0.0
2017-Oct-06 15:00N 34°39' E 135°28'0 0.0
2017-Oct-06 14:27N 34°39' E 135°28'0 0.0
2017-Oct-06 14:00N 34°39' E 135°28'0 0.0
2017-Oct-06 13:30N 34°39' E 135°28'0 0.0
2017-Oct-06 13:00N 34°39' E 135°28'0 0.0
2017-Oct-06 12:29N 34°39' E 135°28'0 0.0
2017-Oct-06 11:57N 34°39' E 135°28'0 0.0
2017-Oct-06 11:25N 34°39' E 135°28'0 0.0
2017-Oct-06 10:53N 34°39' E 135°28'0 0.1
2017-Oct-06 09:10N 34°39' E 135°28'1 5.7
2017-Oct-06 08:58N 34°38' E 135°27'0 0.1
2017-Oct-06 08:28N 34°38' E 135°26'1 2.5
2017-Oct-06 08:00N 34°39' E 135°25'0 0.1
2017-Oct-06 07:30N 34°39' E 135°25'  
Track history (hours):
 
Tides and Currents Weather Stations Pressure Air Temp Water Temp Dewpoint Dewpoint Depression Visibility Wind Speed Wind Dir Waves Ship Positions

No 32takemaru

Last reported at 2017-Oct-16 05:33 UTC. Time now 2017-Oct-17 11:44 UTC.
Position N 34°39' E 135°28'.

Length 38 m; draft 2.8 m.

Type: Tug. MMSI: 431000341.

Date/timePositionNaut miles runAvg speedWind from/ knotsBaromVisibWave heightAir tempDewpointWater temp
2017-Oct-16 05:33N 34°39' E 135°28'0 7.5
2017-Oct-16 05:30N 34°39' E 135°27'3 5.6
2017-Oct-16 05:00N 34°39' E 135°24'1 1.8
2017-Oct-16 04:31N 34°38' E 135°24'0 0.7
2017-Oct-16 04:00N 34°38' E 135°24'3 0.6
2017-Oct-15 22:17N 34°39' E 135°28'0 0.0
2017-Oct-15 21:57N 34°39' E 135°28'0 0.0
2017-Oct-14 21:55N 34°39' E 135°28'0 0.0
2017-Oct-13 20:33N 34°39' E 135°28'0 0.0
2017-Oct-13 20:28N 34°39' E 135°28'0 0.0
2017-Oct-13 17:52N 34°39' E 135°28'0 0.0
2017-Oct-13 17:03N 34°39' E 135°28'0 0.0
2017-Oct-13 16:59N 34°39' E 135°28'0 0.0
2017-Oct-13 16:29N 34°39' E 135°28'0 0.0
2017-Oct-13 16:00N 34°39' E 135°28'0 0.0
2017-Oct-13 15:24N 34°39' E 135°28'0 0.0
2017-Oct-13 14:59N 34°39' E 135°28'0 0.0
2017-Oct-13 14:16N 34°39' E 135°28'0 0.0
2017-Oct-13 13:12N 34°39' E 135°28'0 0.0
2017-Oct-13 12:47N 34°39' E 135°28'  
2017-Oct-08 16:05N 34°39' E 135°28'0 0.0
2017-Oct-08 15:40N 34°39' E 135°28'0 0.0
2017-Oct-08 15:26N 34°39' E 135°28'0 0.0
2017-Oct-08 12:41N 34°39' E 135°28'0 0.0
2017-Oct-08 10:27N 34°39' E 135°28'0 0.0
2017-Oct-07 21:43N 34°39' E 135°28'0 0.0
2017-Oct-07 21:18N 34°39' E 135°28'0 0.0
2017-Oct-07 19:49N 34°39' E 135°28'0 0.0
2017-Oct-07 15:02N 34°39' E 135°28'0 0.0
2017-Oct-07 15:00N 34°39' E 135°28'0 0.0
2017-Oct-07 14:25N 34°39' E 135°28'0 0.0
2017-Oct-07 13:30N 34°39' E 135°28'0 0.0
2017-Oct-07 12:52N 34°39' E 135°28'0 0.0
2017-Oct-07 11:12N 34°39' E 135°28'0 0.0
2017-Oct-06 22:44N 34°39' E 135°28'0 0.0
2017-Oct-06 22:21N 34°39' E 135°28'0 0.0
2017-Oct-06 21:53N 34°39' E 135°28'0 0.0
2017-Oct-06 20:42N 34°39' E 135°28'0 0.0
2017-Oct-06 18:54N 34°39' E 135°28'0 0.0
2017-Oct-06 18:30N 34°39' E 135°28'0 0.0
2017-Oct-06 18:00N 34°39' E 135°28'0 0.0
2017-Oct-06 17:30N 34°39' E 135°28'0 0.0
2017-Oct-06 16:56N 34°39' E 135°28'0 0.0
2017-Oct-06 16:30N 34°39' E 135°28'0 0.0
2017-Oct-06 15:54N 34°39' E 135°28'0 0.0
2017-Oct-06 15:29N 34°39' E 135°28'0 0.0
2017-Oct-06 15:00N 34°39' E 135°28'0 0.0
2017-Oct-06 14:27N 34°39' E 135°28'0 0.0
2017-Oct-06 14:00N 34°39' E 135°28'0 0.0
2017-Oct-06 13:30N 34°39' E 135°28'0 0.0
2017-Oct-06 13:00N 34°39' E 135°28'0 0.0
2017-Oct-06 12:29N 34°39' E 135°28'0 0.0
2017-Oct-06 11:57N 34°39' E 135°28'0 0.0
2017-Oct-06 11:25N 34°39' E 135°28'0 0.0
2017-Oct-06 10:53N 34°39' E 135°28'0 0.1
2017-Oct-06 09:10N 34°39' E 135°28'1 5.7
2017-Oct-06 08:58N 34°38' E 135°27'0 0.1
2017-Oct-06 08:28N 34°38' E 135°26'1 2.5
2017-Oct-06 08:00N 34°39' E 135°25'0 0.1
2017-Oct-06 07:30N 34°39' E 135°25'  

Dump ship's entire track history